Terminal Aerodrome Forecast
Issued by NWS

Home | Current Version | Previous Version | Text Only | Print | Product List | Glossary On
Versions: 1 2 3 4 5 6 7 8 9 10 11 12 13 14 15 16 17 18 19 20 21 22 23 24
683
FTUS46 KMFR 281141
TAFRBG
TAF
KRBG 281141Z 2812/0112 00000KT P6SM -SHRA SCT007 BKN015 OVC025
     FM282000 26004KT P6SM -SHRA SCT015 BKN025 BKN060
     FM282300 29005KT P6SM -SHRA SCT025 BKN035 BKN060
     FM010300 VRB02KT P6SM VCSH BKN025 OVC040
     FM011000 00000KT 5SM BR FEW003 BKN020 OVC030=

USA.gov is the U.S. government's official web portal to all federal, state and local government web resources and services.